createdAt,value
2023-01-23T00:04:49.852Z,5.00
2023-01-23T00:09:53.369Z,6.20
2023-01-23T00:14:56.890Z,5.20
2023-01-23T00:20:01.122Z,5.80
2023-01-23T00:25:06.416Z,7.20
2023-01-23T00:30:11.222Z,6.70
2023-01-23T00:35:15.045Z,5.80
2023-01-23T00:40:18.947Z,6.70
2023-01-23T00:45:22.689Z,6.70
2023-01-23T00:50:26.204Z,5.10
2023-01-23T00:55:29.823Z,5.50
2023-01-23T01:00:33.236Z,4.00
2023-01-23T01:05:37.280Z,6.00
2023-01-23T01:10:41.527Z,5.20
2023-01-23T01:15:44.996Z,5.30
2023-01-23T01:20:49.344Z,5.00
2023-01-23T01:25:52.972Z,6.00
2023-01-23T01:30:57.923Z,3.80
2023-01-23T01:36:02.363Z,5.60
2023-01-23T01:46:21.230Z,5.50
2023-01-23T01:51:36.124Z,5.70
2023-01-23T01:57:23.506Z,6.20
2023-01-23T02:02:32.019Z,5.40
2023-01-23T02:07:47.934Z,6.10
2023-01-23T02:12:53.086Z,5.80
2023-01-23T02:17:56.594Z,4.50
2023-01-23T02:23:34.819Z,5.10
2023-01-23T02:28:44.211Z,6.90
2023-01-23T02:33:55.796Z,5.50
2023-01-23T02:39:07.309Z,5.20
2023-01-23T02:44:18.176Z,5.50
2023-01-23T02:49:22.432Z,5.10
2023-01-23T02:54:26.643Z,5.00
2023-01-23T02:59:48.684Z,5.20
2023-01-23T03:04:52.108Z,5.20
2023-01-23T03:09:55.718Z,5.00
2023-01-23T03:14:59.332Z,5.40
2023-01-23T03:20:04.511Z,5.40
2023-01-23T03:25:08.339Z,4.30
2023-01-23T03:30:17.418Z,5.10
2023-01-23T03:35:21.388Z,5.40
2023-01-23T03:40:44.043Z,5.90
2023-01-23T03:45:47.694Z,6.60
2023-01-23T03:50:51.197Z,6.10
2023-01-23T03:55:54.694Z,5.40
2023-01-23T04:00:58.446Z,4.90
2023-01-23T04:06:02.545Z,5.30
2023-01-23T04:11:08.894Z,5.10
2023-01-23T04:16:12.971Z,5.30
2023-01-23T04:21:16.889Z,5.70
2023-01-23T04:26:20.294Z,5.00
2023-01-23T04:31:23.779Z,3.80
2023-01-23T04:36:27.649Z,3.30
2023-01-23T04:41:32.177Z,5.30
2023-01-23T04:46:35.788Z,5.60
2023-01-23T04:51:39.205Z,13.70
2023-01-23T04:56:43.536Z,13.20
2023-01-23T05:01:46.954Z,11.90
2023-01-23T05:06:50.470Z,8.60
2023-01-23T05:11:53.990Z,6.00
2023-01-23T05:16:57.495Z,6.50
2023-01-23T05:22:00.913Z,6.80
2023-01-23T05:27:04.636Z,7.20
2023-01-23T05:32:08.667Z,6.90
2023-01-23T05:37:12.295Z,7.90
2023-01-23T05:42:15.687Z,9.50
2023-01-23T05:47:19.314Z,7.50
2023-01-23T05:52:22.822Z,5.70
2023-01-23T05:57:26.443Z,7.00
2023-01-23T06:02:30.101Z,6.40
2023-01-23T06:07:33.681Z,5.40
2023-01-23T06:12:37.498Z,8.00
2023-01-23T06:17:40.940Z,6.80
2023-01-23T06:22:44.466Z,5.60
2023-01-23T06:27:48.351Z,5.80
2023-01-23T06:32:51.868Z,8.00
2023-01-23T06:37:55.280Z,7.10
2023-01-23T06:42:58.897Z,6.50
2023-01-23T06:48:02.823Z,7.50
2023-01-23T06:53:06.450Z,7.20
2023-01-23T06:58:10.071Z,7.50
2023-01-23T07:03:15.413Z,8.20
2023-01-23T07:08:18.934Z,6.30
2023-01-23T07:13:22.451Z,8.10
2023-01-23T07:18:28.548Z,10.50
2023-01-23T07:23:32.241Z,6.00
2023-01-23T07:28:38.933Z,10.10
2023-01-23T07:33:42.806Z,25.20
2023-01-23T07:38:46.378Z,6.80
2023-01-23T07:43:49.895Z,7.10
2023-01-23T07:48:53.821Z,5.90
2023-01-23T07:53:57.432Z,6.30
2023-01-23T07:59:01.358Z,6.30
2023-01-23T08:04:04.786Z,8.50
2023-01-23T08:09:08.499Z,7.50
2023-01-23T08:14:12.416Z,20.00
2023-01-23T08:19:15.935Z,7.70
2023-01-23T08:24:19.857Z,4.80
2023-01-23T08:29:23.267Z,6.40
2023-01-23T08:34:26.994Z,6.70
2023-01-23T08:39:30.530Z,7.10
2023-01-23T08:44:34.634Z,21.30
2023-01-23T08:54:41.972Z,6.40
2023-01-23T08:59:46.003Z,6.10
2023-01-23T09:04:50.444Z,6.40
2023-01-23T09:14:59.926Z,5.90
2023-01-23T09:20:06.060Z,6.00
2023-01-23T09:25:10.233Z,6.00
2023-01-23T09:30:14.496Z,6.00
2023-01-23T09:35:17.989Z,5.00
2023-01-23T09:40:25.800Z,7.50
2023-01-23T09:45:30.718Z,6.20
2023-01-23T09:50:40.100Z,21.10
2023-01-23T09:56:15.665Z,7.30
2023-01-23T10:01:19.144Z,8.30
2023-01-23T10:06:26.999Z,8.20
2023-01-23T10:11:46.284Z,8.50
2023-01-23T10:16:57.196Z,7.10
2023-01-23T10:22:06.524Z,6.90
2023-01-23T10:27:42.431Z,6.50
2023-01-23T10:32:56.255Z,6.30
2023-01-23T10:38:33.051Z,6.70
2023-01-23T10:43:37.387Z,33.40
2023-01-23T10:48:42.910Z,56.70
2023-01-23T10:54:30.749Z,15.20
2023-01-23T10:59:49.075Z,7.40
2023-01-23T11:04:52.946Z,6.60
2023-01-23T11:10:18.728Z,5.60
2023-01-23T11:15:24.636Z,17.70
2023-01-23T11:20:32.416Z,6.50
2023-01-23T11:25:48.026Z,12.20
2023-01-23T11:31:11.888Z,6.40
2023-01-23T11:36:20.337Z,17.50
2023-01-23T11:41:35.219Z,6.50
2023-01-23T11:46:57.379Z,6.00
2023-01-23T11:52:22.595Z,7.50
2023-01-23T11:57:39.830Z,8.30
2023-01-23T12:03:21.544Z,10.90
2023-01-23T12:08:50.665Z,7.80
2023-01-23T12:13:56.838Z,22.00
2023-01-23T12:19:22.165Z,19.30
2023-01-23T12:24:31.722Z,8.00
2023-01-23T12:30:13.030Z,12.60
2023-01-23T12:35:44.185Z,7.80
2023-01-23T12:41:08.491Z,5.70
2023-01-23T12:46:18.970Z,8.00
2023-01-23T12:51:37.851Z,7.20
2023-01-23T12:56:42.766Z,8.30
2023-01-23T13:02:06.137Z,5.60
2023-01-23T13:07:57.817Z,13.20
2023-01-23T13:13:01.976Z,6.30
2023-01-23T13:18:06.609Z,67.60
2023-01-23T13:23:30.071Z,50.00
2023-01-23T13:28:46.417Z,8.80
2023-01-23T13:33:51.823Z,11.90
2023-01-23T13:39:05.807Z,7.00
2023-01-23T13:44:41.496Z,7.90
2023-01-23T14:22:44.601Z,8.40
2023-01-23T14:27:53.800Z,8.90
2023-01-23T14:32:59.588Z,8.10
2023-01-23T14:38:06.314Z,8.80
2023-01-23T14:43:17.507Z,8.70
2023-01-23T14:48:22.233Z,10.30
2023-01-23T14:53:25.663Z,12.50
2023-01-23T14:58:30.898Z,13.10
2023-01-23T15:03:40.286Z,15.20
2023-01-23T15:08:44.197Z,19.50
2023-01-23T15:13:55.029Z,19.30
2023-01-23T15:19:05.601Z,14.60
2023-01-23T15:24:15.356Z,14.20
2023-01-23T15:29:20.519Z,16.20
2023-01-23T15:34:30.903Z,12.90
2023-01-23T15:39:58.846Z,19.90
2023-01-23T15:45:03.938Z,19.40
2023-01-23T15:50:08.048Z,14.10
2023-01-23T15:55:12.158Z,17.70
2023-01-23T16:00:25.146Z,12.20
2023-01-23T16:05:35.712Z,15.00
2023-01-23T16:10:39.999Z,14.10
2023-01-23T16:20:47.349Z,15.00
2023-01-23T16:25:52.181Z,14.50
2023-01-23T16:30:56.026Z,18.50
2023-01-23T16:35:59.550Z,19.00
2023-01-23T16:41:03.153Z,11.40
2023-01-23T16:46:06.783Z,11.30
2023-01-23T16:51:23.458Z,13.70
2023-01-23T16:56:35.413Z,11.90
2023-01-23T17:01:41.852Z,12.60
2023-01-23T17:06:45.306Z,13.30
2023-01-23T17:11:56.405Z,14.40
2023-01-23T17:17:07.773Z,17.80
2023-01-23T17:22:21.668Z,16.80
2023-01-23T17:27:25.172Z,19.00
2023-01-23T17:32:34.853Z,17.80
2023-01-23T17:37:38.456Z,18.20
2023-01-23T17:42:42.807Z,14.80
2023-01-23T17:47:53.506Z,16.80
2023-01-23T17:52:56.883Z,17.60
2023-01-23T17:58:01.007Z,21.30
2023-01-23T18:03:04.832Z,21.90
2023-01-23T18:08:14.697Z,17.90
2023-01-23T18:13:20.974Z,19.40
2023-01-23T18:18:31.769Z,19.50
2023-01-23T18:23:37.237Z,19.00
2023-01-23T18:29:02.550Z,20.20
2023-01-23T18:39:24.327Z,22.20
2023-01-23T18:44:29.416Z,16.90
2023-01-23T18:49:33.840Z,19.80
2023-01-23T19:00:06.547Z,13.10
2023-01-23T19:05:18.902Z,20.10
2023-01-23T19:10:25.797Z,19.30
2023-01-23T19:15:41.596Z,19.80
2023-01-23T19:21:01.079Z,17.40
2023-01-23T19:26:05.191Z,16.50
2023-01-23T19:31:20.939Z,16.60
2023-01-23T19:36:25.990Z,18.70
2023-01-23T19:41:49.429Z,18.70
2023-01-23T19:46:52.969Z,19.40
2023-01-23T19:51:56.885Z,17.70
2023-01-23T19:57:00.380Z,19.50
2023-01-23T20:02:04.499Z,23.50
2023-01-23T20:07:10.174Z,21.90
2023-01-23T20:12:14.002Z,21.10
2023-01-23T20:17:17.410Z,16.30
2023-01-23T20:22:21.236Z,17.00
2023-01-23T20:27:25.059Z,15.70
2023-01-23T20:32:32.486Z,20.60
2023-01-23T20:37:35.981Z,22.80
2023-01-23T20:42:40.591Z,25.50
2023-01-23T20:53:05.986Z,18.90
2023-01-23T20:58:28.237Z,21.30
2023-01-23T21:03:31.865Z,21.20
2023-01-23T21:08:35.677Z,21.20
2023-01-23T21:13:39.093Z,18.60
2023-01-23T21:18:46.408Z,18.80
2023-01-23T21:23:51.109Z,16.80
2023-01-23T21:28:56.321Z,19.80
2023-01-23T21:34:01.447Z,21.60
2023-01-23T21:39:06.685Z,18.60
2023-01-23T21:44:11.894Z,16.10
2023-01-23T21:54:18.692Z,17.30
2023-01-23T21:59:22.504Z,30.40
2023-01-23T22:04:26.022Z,22.20
2023-01-23T22:09:29.841Z,19.30
2023-01-23T22:14:33.357Z,16.10
2023-01-23T22:19:36.986Z,15.80
2023-01-23T22:24:40.595Z,20.00
2023-01-23T22:29:44.109Z,18.10
2023-01-23T22:34:47.729Z,19.60
2023-01-23T22:39:51.248Z,20.40
2023-01-23T22:44:54.859Z,18.80
2023-01-23T22:49:58.477Z,24.80
2023-01-23T22:55:01.996Z,22.30
2023-01-23T23:00:08.859Z,20.80
2023-01-23T23:05:12.406Z,24.00
2023-01-23T23:10:15.827Z,20.10
2023-01-23T23:15:20.843Z,23.00
2023-01-23T23:20:24.384Z,18.40
2023-01-23T23:25:27.903Z,22.00
2023-01-23T23:30:31.619Z,21.90
2023-01-23T23:35:35.140Z,22.00
2023-01-23T23:40:39.468Z,24.50
2023-01-23T23:45:51.861Z,22.20
2023-01-23T23:50:55.613Z,23.20
2023-01-23T23:55:59.229Z,21.60
